sensor_id;sensor_type;location;lat;lon;timestamp;P1;durP1;ratioP1;P2;durP2;ratioP2
13743;SDS011;6943;52.368;9.966;2023-12-29T00:01:55;5.80;;;3.20;;
13743;SDS011;6943;52.368;9.966;2023-12-29T00:04:21;5.87;;;2.77;;
13743;SDS011;6943;52.368;9.966;2023-12-29T00:06:46;7.17;;;2.90;;
13743;SDS011;6943;52.368;9.966;2023-12-29T00:09:12;4.20;;;1.90;;
13743;SDS011;6943;52.368;9.966;2023-12-29T00:11:40;3.70;;;1.70;;
13743;SDS011;6943;52.368;9.966;2023-12-29T00:14:06;3.60;;;1.53;;
13743;SDS011;6943;52.368;9.966;2023-12-29T00:16:31;6.57;;;2.07;;
13743;SDS011;6943;52.368;9.966;2023-12-29T00:18:57;4.97;;;2.10;;
13743;SDS011;6943;52.368;9.966;2023-12-29T00:21:22;5.13;;;1.80;;
13743;SDS011;6943;52.368;9.966;2023-12-29T00:23:48;4.90;;;1.43;;
13743;SDS011;6943;52.368;9.966;2023-12-29T00:26:17;7.37;;;3.20;;
13743;SDS011;6943;52.368;9.966;2023-12-29T00:28:43;4.83;;;2.00;;
13743;SDS011;6943;52.368;9.966;2023-12-29T00:31:09;4.50;;;2.20;;
13743;SDS011;6943;52.368;9.966;2023-12-29T00:33:39;5.10;;;1.77;;
13743;SDS011;6943;52.368;9.966;2023-12-29T00:36:04;4.37;;;2.20;;
13743;SDS011;6943;52.368;9.966;2023-12-29T00:38:30;2.80;;;1.30;;
13743;SDS011;6943;52.368;9.966;2023-12-29T00:40:55;5.73;;;1.80;;
13743;SDS011;6943;52.368;9.966;2023-12-29T00:43:21;3.57;;;1.37;;
13743;SDS011;6943;52.368;9.966;2023-12-29T00:45:47;3.37;;;1.53;;
13743;SDS011;6943;52.368;9.966;2023-12-29T00:48:13;3.70;;;1.53;;
13743;SDS011;6943;52.368;9.966;2023-12-29T00:50:39;2.93;;;1.47;;
13743;SDS011;6943;52.368;9.966;2023-12-29T00:53:04;5.50;;;1.40;;
13743;SDS011;6943;52.368;9.966;2023-12-29T00:55:30;4.57;;;1.60;;
13743;SDS011;6943;52.368;9.966;2023-12-29T00:57:55;5.03;;;1.60;;
13743;SDS011;6943;52.368;9.966;2023-12-29T01:00:21;6.23;;;1.60;;
13743;SDS011;6943;52.368;9.966;2023-12-29T01:02:46;4.00;;;1.90;;
13743;SDS011;6943;52.368;9.966;2023-12-29T01:05:15;3.27;;;1.80;;
13743;SDS011;6943;52.368;9.966;2023-12-29T01:07:42;4.17;;;1.70;;
13743;SDS011;6943;52.368;9.966;2023-12-29T01:10:08;6.27;;;1.63;;
13743;SDS011;6943;52.368;9.966;2023-12-29T01:12:33;3.93;;;1.40;;
13743;SDS011;6943;52.368;9.966;2023-12-29T01:14:59;3.60;;;1.23;;
13743;SDS011;6943;52.368;9.966;2023-12-29T01:17:24;6.13;;;1.70;;
13743;SDS011;6943;52.368;9.966;2023-12-29T01:19:52;2.37;;;1.33;;
13743;SDS011;6943;52.368;9.966;2023-12-29T01:22:17;3.03;;;1.70;;
13743;SDS011;6943;52.368;9.966;2023-12-29T01:24:43;5.20;;;1.53;;
13743;SDS011;6943;52.368;9.966;2023-12-29T01:27:08;3.23;;;1.50;;
13743;SDS011;6943;52.368;9.966;2023-12-29T01:29:34;4.00;;;1.27;;
13743;SDS011;6943;52.368;9.966;2023-12-29T01:31:59;5.87;;;1.43;;
13743;SDS011;6943;52.368;9.966;2023-12-29T01:34:25;6.97;;;2.03;;
13743;SDS011;6943;52.368;9.966;2023-12-29T01:36:57;4.07;;;1.33;;
13743;SDS011;6943;52.368;9.966;2023-12-29T01:39:23;4.63;;;1.67;;
13743;SDS011;6943;52.368;9.966;2023-12-29T01:41:48;4.37;;;1.50;;
13743;SDS011;6943;52.368;9.966;2023-12-29T01:44:18;3.53;;;1.30;;
13743;SDS011;6943;52.368;9.966;2023-12-29T01:46:48;4.80;;;1.47;;
13743;SDS011;6943;52.368;9.966;2023-12-29T01:49:15;3.80;;;1.50;;
13743;SDS011;6943;52.368;9.966;2023-12-29T01:51:44;5.40;;;1.40;;
13743;SDS011;6943;52.368;9.966;2023-12-29T01:54:12;3.60;;;1.47;;
13743;SDS011;6943;52.368;9.966;2023-12-29T01:56:38;2.17;;;1.33;;
13743;SDS011;6943;52.368;9.966;2023-12-29T01:59:04;6.07;;;1.50;;
13743;SDS011;6943;52.368;9.966;2023-12-29T02:01:30;3.40;;;1.10;;
13743;SDS011;6943;52.368;9.966;2023-12-29T02:03:56;3.47;;;1.60;;
13743;SDS011;6943;52.368;9.966;2023-12-29T02:06:22;3.10;;;1.83;;
13743;SDS011;6943;52.368;9.966;2023-12-29T02:11:24;3.70;;;1.60;;
13743;SDS011;6943;52.368;9.966;2023-12-29T02:13:50;5.37;;;1.70;;
13743;SDS011;6943;52.368;9.966;2023-12-29T02:16:18;5.03;;;1.40;;
13743;SDS011;6943;52.368;9.966;2023-12-29T02:18:58;5.33;;;1.30;;
13743;SDS011;6943;52.368;9.966;2023-12-29T02:21:26;4.17;;;1.83;;
13743;SDS011;6943;52.368;9.966;2023-12-29T02:23:51;3.53;;;1.30;;
13743;SDS011;6943;52.368;9.966;2023-12-29T02:26:17;6.00;;;1.70;;
13743;SDS011;6943;52.368;9.966;2023-12-29T02:28:47;2.23;;;1.20;;
13743;SDS011;6943;52.368;9.966;2023-12-29T02:31:18;3.80;;;1.43;;
13743;SDS011;6943;52.368;9.966;2023-12-29T02:33:45;4.40;;;1.83;;
13743;SDS011;6943;52.368;9.966;2023-12-29T02:36:12;3.50;;;1.67;;
13743;SDS011;6943;52.368;9.966;2023-12-29T02:38:41;4.60;;;1.30;;
13743;SDS011;6943;52.368;9.966;2023-12-29T02:41:07;4.37;;;1.23;;
13743;SDS011;6943;52.368;9.966;2023-12-29T02:43:32;5.13;;;1.73;;
13743;SDS011;6943;52.368;9.966;2023-12-29T02:45:58;5.80;;;1.50;;
13743;SDS011;6943;52.368;9.966;2023-12-29T02:48:23;3.10;;;0.80;;
13743;SDS011;6943;52.368;9.966;2023-12-29T02:50:49;4.70;;;1.50;;
13743;SDS011;6943;52.368;9.966;2023-12-29T02:53:15;3.07;;;2.03;;
13743;SDS011;6943;52.368;9.966;2023-12-29T02:55:41;3.63;;;2.07;;
13743;SDS011;6943;52.368;9.966;2023-12-29T02:58:06;4.23;;;1.67;;
13743;SDS011;6943;52.368;9.966;2023-12-29T03:00:33;4.53;;;2.00;;
13743;SDS011;6943;52.368;9.966;2023-12-29T03:02:59;5.37;;;1.93;;
13743;SDS011;6943;52.368;9.966;2023-12-29T03:05:24;4.37;;;2.00;;
13743;SDS011;6943;52.368;9.966;2023-12-29T03:07:50;4.90;;;1.43;;
13743;SDS011;6943;52.368;9.966;2023-12-29T03:10:16;4.03;;;1.10;;
13743;SDS011;6943;52.368;9.966;2023-12-29T03:12:41;3.70;;;1.17;;
13743;SDS011;6943;52.368;9.966;2023-12-29T03:15:07;2.53;;;0.80;;
13743;SDS011;6943;52.368;9.966;2023-12-29T03:17:33;5.20;;;1.20;;
13743;SDS011;6943;52.368;9.966;2023-12-29T03:19:58;4.60;;;1.20;;
13743;SDS011;6943;52.368;9.966;2023-12-29T03:22:24;6.00;;;1.10;;
13743;SDS011;6943;52.368;9.966;2023-12-29T03:24:49;2.83;;;1.17;;
13743;SDS011;6943;52.368;9.966;2023-12-29T03:27:15;4.23;;;1.17;;
13743;SDS011;6943;52.368;9.966;2023-12-29T03:29:40;4.50;;;1.50;;
13743;SDS011;6943;52.368;9.966;2023-12-29T03:32:06;4.13;;;1.30;;
13743;SDS011;6943;52.368;9.966;2023-12-29T03:34:32;2.40;;;1.07;;
13743;SDS011;6943;52.368;9.966;2023-12-29T03:36:57;4.17;;;2.00;;
13743;SDS011;6943;52.368;9.966;2023-12-29T03:39:23;5.03;;;1.80;;
13743;SDS011;6943;52.368;9.966;2023-12-29T03:41:48;1.93;;;0.97;;
13743;SDS011;6943;52.368;9.966;2023-12-29T03:44:14;3.53;;;1.40;;
13743;SDS011;6943;52.368;9.966;2023-12-29T03:46:40;4.23;;;1.33;;
13743;SDS011;6943;52.368;9.966;2023-12-29T03:49:05;6.00;;;1.50;;
13743;SDS011;6943;52.368;9.966;2023-12-29T03:51:31;4.97;;;1.00;;
13743;SDS011;6943;52.368;9.966;2023-12-29T03:53:56;3.73;;;0.90;;
13743;SDS011;6943;52.368;9.966;2023-12-29T03:56:23;3.27;;;1.00;;
13743;SDS011;6943;52.368;9.966;2023-12-29T03:58:48;5.37;;;1.47;;
13743;SDS011;6943;52.368;9.966;2023-12-29T04:01:15;3.37;;;1.87;;
13743;SDS011;6943;52.368;9.966;2023-12-29T04:03:42;5.50;;;0.80;;
13743;SDS011;6943;52.368;9.966;2023-12-29T04:06:08;1.33;;;0.63;;
13743;SDS011;6943;52.368;9.966;2023-12-29T04:08:34;2.13;;;0.80;;
13743;SDS011;6943;52.368;9.966;2023-12-29T04:11:00;2.40;;;0.63;;
13743;SDS011;6943;52.368;9.966;2023-12-29T04:13:26;1.93;;;0.60;;
13743;SDS011;6943;52.368;9.966;2023-12-29T04:15:51;0.70;;;0.60;;
13743;SDS011;6943;52.368;9.966;2023-12-29T04:18:18;4.90;;;0.80;;
13743;SDS011;6943;52.368;9.966;2023-12-29T04:20:45;2.57;;;0.67;;
13743;SDS011;6943;52.368;9.966;2023-12-29T04:23:11;1.63;;;0.80;;
13743;SDS011;6943;52.368;9.966;2023-12-29T04:25:37;2.90;;;1.53;;
13743;SDS011;6943;52.368;9.966;2023-12-29T04:28:03;2.70;;;0.90;;
13743;SDS011;6943;52.368;9.966;2023-12-29T04:30:28;2.50;;;1.10;;
13743;SDS011;6943;52.368;9.966;2023-12-29T04:32:54;4.37;;;1.10;;
13743;SDS011;6943;52.368;9.966;2023-12-29T04:35:19;1.23;;;0.60;;
13743;SDS011;6943;52.368;9.966;2023-12-29T04:37:45;2.00;;;0.90;;
13743;SDS011;6943;52.368;9.966;2023-12-29T04:40:11;1.57;;;0.70;;
13743;SDS011;6943;52.368;9.966;2023-12-29T04:42:37;3.10;;;0.97;;
13743;SDS011;6943;52.368;9.966;2023-12-29T04:45:03;1.73;;;0.80;;
13743;SDS011;6943;52.368;9.966;2023-12-29T04:47:29;2.30;;;1.00;;
13743;SDS011;6943;52.368;9.966;2023-12-29T04:49:55;3.87;;;1.17;;
13743;SDS011;6943;52.368;9.966;2023-12-29T04:52:21;1.83;;;0.70;;
13743;SDS011;6943;52.368;9.966;2023-12-29T04:54:46;5.13;;;1.00;;
13743;SDS011;6943;52.368;9.966;2023-12-29T04:57:12;1.67;;;0.97;;
13743;SDS011;6943;52.368;9.966;2023-12-29T04:59:37;3.50;;;0.77;;
13743;SDS011;6943;52.368;9.966;2023-12-29T05:02:03;2.50;;;0.93;;
13743;SDS011;6943;52.368;9.966;2023-12-29T05:04:28;1.40;;;1.10;;
13743;SDS011;6943;52.368;9.966;2023-12-29T05:06:54;1.00;;;0.60;;
13743;SDS011;6943;52.368;9.966;2023-12-29T05:09:19;3.07;;;0.70;;
13743;SDS011;6943;52.368;9.966;2023-12-29T05:11:45;1.77;;;0.80;;
13743;SDS011;6943;52.368;9.966;2023-12-29T05:14:11;2.00;;;0.70;;
13743;SDS011;6943;52.368;9.966;2023-12-29T05:16:36;1.13;;;0.80;;
13743;SDS011;6943;52.368;9.966;2023-12-29T05:19:02;1.73;;;0.83;;
13743;SDS011;6943;52.368;9.966;2023-12-29T05:21:27;2.63;;;0.90;;
13743;SDS011;6943;52.368;9.966;2023-12-29T05:23:53;1.30;;;0.90;;
13743;SDS011;6943;52.368;9.966;2023-12-29T05:26:18;2.30;;;1.33;;
13743;SDS011;6943;52.368;9.966;2023-12-29T05:28:44;2.63;;;1.20;;
13743;SDS011;6943;52.368;9.966;2023-12-29T05:31:09;2.30;;;1.47;;
13743;SDS011;6943;52.368;9.966;2023-12-29T05:33:35;2.87;;;0.90;;
13743;SDS011;6943;52.368;9.966;2023-12-29T05:36:07;2.37;;;1.00;;
13743;SDS011;6943;52.368;9.966;2023-12-29T05:38:34;3.63;;;1.17;;
13743;SDS011;6943;52.368;9.966;2023-12-29T05:41:00;1.37;;;0.77;;
13743;SDS011;6943;52.368;9.966;2023-12-29T05:43:27;3.10;;;1.10;;
13743;SDS011;6943;52.368;9.966;2023-12-29T05:45:53;2.03;;;0.80;;
13743;SDS011;6943;52.368;9.966;2023-12-29T05:48:18;1.93;;;1.07;;
13743;SDS011;6943;52.368;9.966;2023-12-29T05:50:44;4.83;;;1.17;;
13743;SDS011;6943;52.368;9.966;2023-12-29T05:53:09;3.90;;;1.37;;
13743;SDS011;6943;52.368;9.966;2023-12-29T05:55:34;2.13;;;1.00;;
13743;SDS011;6943;52.368;9.966;2023-12-29T05:58:01;3.60;;;0.97;;
13743;SDS011;6943;52.368;9.966;2023-12-29T06:00:26;4.93;;;1.30;;
13743;SDS011;6943;52.368;9.966;2023-12-29T06:02:52;3.53;;;1.30;;
13743;SDS011;6943;52.368;9.966;2023-12-29T06:05:17;2.10;;;1.20;;
13743;SDS011;6943;52.368;9.966;2023-12-29T06:07:43;2.73;;;1.30;;
13743;SDS011;6943;52.368;9.966;2023-12-29T06:10:08;3.13;;;1.30;;
13743;SDS011;6943;52.368;9.966;2023-12-29T06:12:34;4.30;;;1.43;;
13743;SDS011;6943;52.368;9.966;2023-12-29T06:15:00;4.90;;;1.20;;
13743;SDS011;6943;52.368;9.966;2023-12-29T06:17:26;5.23;;;1.23;;
13743;SDS011;6943;52.368;9.966;2023-12-29T06:19:51;4.07;;;1.17;;
13743;SDS011;6943;52.368;9.966;2023-12-29T06:22:17;2.70;;;1.13;;
13743;SDS011;6943;52.368;9.966;2023-12-29T06:24:43;3.93;;;1.20;;
13743;SDS011;6943;52.368;9.966;2023-12-29T06:27:09;3.77;;;1.40;;
13743;SDS011;6943;52.368;9.966;2023-12-29T06:29:35;3.53;;;1.40;;
13743;SDS011;6943;52.368;9.966;2023-12-29T06:32:01;6.03;;;1.70;;
13743;SDS011;6943;52.368;9.966;2023-12-29T06:34:27;3.27;;;1.50;;
13743;SDS011;6943;52.368;9.966;2023-12-29T06:36:53;4.37;;;1.80;;
13743;SDS011;6943;52.368;9.966;2023-12-29T06:39:18;4.13;;;1.77;;
13743;SDS011;6943;52.368;9.966;2023-12-29T06:41:44;4.40;;;1.53;;
13743;SDS011;6943;52.368;9.966;2023-12-29T06:44:09;5.47;;;3.70;;
13743;SDS011;6943;52.368;9.966;2023-12-29T06:46:38;5.57;;;1.93;;
13743;SDS011;6943;52.368;9.966;2023-12-29T06:49:04;7.30;;;1.70;;
13743;SDS011;6943;52.368;9.966;2023-12-29T06:51:31;5.47;;;2.07;;
13743;SDS011;6943;52.368;9.966;2023-12-29T06:53:56;3.63;;;1.50;;
13743;SDS011;6943;52.368;9.966;2023-12-29T06:56:22;3.50;;;1.80;;
13743;SDS011;6943;52.368;9.966;2023-12-29T06:58:47;5.03;;;1.50;;
13743;SDS011;6943;52.368;9.966;2023-12-29T07:01:13;4.43;;;2.10;;
13743;SDS011;6943;52.368;9.966;2023-12-29T07:03:39;9.43;;;2.50;;
13743;SDS011;6943;52.368;9.966;2023-12-29T07:06:04;4.73;;;1.77;;
13743;SDS011;6943;52.368;9.966;2023-12-29T07:08:30;4.67;;;1.80;;
13743;SDS011;6943;52.368;9.966;2023-12-29T07:10:55;6.87;;;1.80;;
13743;SDS011;6943;52.368;9.966;2023-12-29T07:13:21;4.80;;;2.00;;
13743;SDS011;6943;52.368;9.966;2023-12-29T07:15:47;7.73;;;1.67;;
13743;SDS011;6943;52.368;9.966;2023-12-29T07:18:13;7.97;;;1.43;;
13743;SDS011;6943;52.368;9.966;2023-12-29T07:20:38;3.20;;;1.80;;
13743;SDS011;6943;52.368;9.966;2023-12-29T07:23:04;3.83;;;1.60;;
13743;SDS011;6943;52.368;9.966;2023-12-29T07:25:30;4.73;;;1.70;;
13743;SDS011;6943;52.368;9.966;2023-12-29T07:27:55;3.83;;;1.63;;
13743;SDS011;6943;52.368;9.966;2023-12-29T07:30:21;6.13;;;1.30;;
13743;SDS011;6943;52.368;9.966;2023-12-29T07:32:46;4.73;;;1.90;;
13743;SDS011;6943;52.368;9.966;2023-12-29T07:35:12;4.40;;;1.73;;
13743;SDS011;6943;52.368;9.966;2023-12-29T07:37:41;6.77;;;1.50;;
13743;SDS011;6943;52.368;9.966;2023-12-29T07:40:07;6.87;;;2.00;;
13743;SDS011;6943;52.368;9.966;2023-12-29T07:42:35;5.53;;;1.83;;
13743;SDS011;6943;52.368;9.966;2023-12-29T07:45:00;6.97;;;2.20;;
13743;SDS011;6943;52.368;9.966;2023-12-29T07:47:26;5.97;;;1.60;;
13743;SDS011;6943;52.368;9.966;2023-12-29T07:49:51;6.67;;;1.50;;
13743;SDS011;6943;52.368;9.966;2023-12-29T07:52:17;4.87;;;1.80;;
13743;SDS011;6943;52.368;9.966;2023-12-29T07:54:42;6.70;;;2.07;;
13743;SDS011;6943;52.368;9.966;2023-12-29T07:57:07;5.57;;;1.73;;
13743;SDS011;6943;52.368;9.966;2023-12-29T07:59:33;4.53;;;1.70;;
13743;SDS011;6943;52.368;9.966;2023-12-29T08:01:58;4.80;;;1.60;;
13743;SDS011;6943;52.368;9.966;2023-12-29T08:04:24;4.73;;;2.10;;
13743;SDS011;6943;52.368;9.966;2023-12-29T08:06:49;7.27;;;2.10;;
13743;SDS011;6943;52.368;9.966;2023-12-29T08:09:15;3.90;;;2.07;;
13743;SDS011;6943;52.368;9.966;2023-12-29T08:11:40;8.67;;;2.20;;
13743;SDS011;6943;52.368;9.966;2023-12-29T08:14:07;8.83;;;2.13;;
13743;SDS011;6943;52.368;9.966;2023-12-29T08:16:37;5.97;;;2.07;;
13743;SDS011;6943;52.368;9.966;2023-12-29T08:19:04;4.40;;;1.77;;
13743;SDS011;6943;52.368;9.966;2023-12-29T08:21:29;8.13;;;2.40;;
13743;SDS011;6943;52.368;9.966;2023-12-29T08:23:55;8.37;;;2.03;;
13743;SDS011;6943;52.368;9.966;2023-12-29T08:26:20;5.87;;;1.97;;
13743;SDS011;6943;52.368;9.966;2023-12-29T08:28:45;4.40;;;1.63;;
13743;SDS011;6943;52.368;9.966;2023-12-29T08:31:11;3.20;;;1.80;;
13743;SDS011;6943;52.368;9.966;2023-12-29T08:33:36;5.77;;;1.83;;
13743;SDS011;6943;52.368;9.966;2023-12-29T08:36:02;4.73;;;1.70;;
13743;SDS011;6943;52.368;9.966;2023-12-29T08:38:28;7.90;;;2.57;;
13743;SDS011;6943;52.368;9.966;2023-12-29T08:40:55;3.70;;;1.97;;
13743;SDS011;6943;52.368;9.966;2023-12-29T08:43:21;4.50;;;1.63;;
13743;SDS011;6943;52.368;9.966;2023-12-29T08:45:49;9.47;;;2.00;;
13743;SDS011;6943;52.368;9.966;2023-12-29T08:48:15;5.17;;;1.83;;
13743;SDS011;6943;52.368;9.966;2023-12-29T08:50:41;5.47;;;1.60;;
13743;SDS011;6943;52.368;9.966;2023-12-29T08:53:10;7.67;;;1.80;;
13743;SDS011;6943;52.368;9.966;2023-12-29T08:55:35;6.23;;;1.80;;
13743;SDS011;6943;52.368;9.966;2023-12-29T08:58:01;7.73;;;1.83;;
13743;SDS011;6943;52.368;9.966;2023-12-29T09:00:26;7.60;;;1.93;;
13743;SDS011;6943;52.368;9.966;2023-12-29T09:02:53;5.13;;;1.57;;
13743;SDS011;6943;52.368;9.966;2023-12-29T09:05:19;5.30;;;1.83;;
13743;SDS011;6943;52.368;9.966;2023-12-29T09:07:44;8.07;;;2.17;;
13743;SDS011;6943;52.368;9.966;2023-12-29T09:10:10;9.97;;;2.00;;
13743;SDS011;6943;52.368;9.966;2023-12-29T09:12:37;10.13;;;2.67;;
13743;SDS011;6943;52.368;9.966;2023-12-29T09:15:03;7.63;;;1.90;;
13743;SDS011;6943;52.368;9.966;2023-12-29T09:17:30;5.10;;;1.90;;
13743;SDS011;6943;52.368;9.966;2023-12-29T09:19:55;5.50;;;1.60;;
13743;SDS011;6943;52.368;9.966;2023-12-29T09:22:21;3.20;;;1.70;;
13743;SDS011;6943;52.368;9.966;2023-12-29T09:24:46;6.80;;;1.47;;
13743;SDS011;6943;52.368;9.966;2023-12-29T09:27:12;6.37;;;1.80;;
13743;SDS011;6943;52.368;9.966;2023-12-29T09:29:38;10.13;;;1.80;;
13743;SDS011;6943;52.368;9.966;2023-12-29T09:32:03;7.90;;;1.80;;
13743;SDS011;6943;52.368;9.966;2023-12-29T09:34:29;6.57;;;1.80;;
13743;SDS011;6943;52.368;9.966;2023-12-29T09:36:55;4.93;;;1.53;;
13743;SDS011;6943;52.368;9.966;2023-12-29T09:39:20;5.80;;;1.50;;
13743;SDS011;6943;52.368;9.966;2023-12-29T09:41:46;7.53;;;1.80;;
13743;SDS011;6943;52.368;9.966;2023-12-29T09:44:16;4.63;;;1.30;;
13743;SDS011;6943;52.368;9.966;2023-12-29T09:46:43;7.27;;;2.40;;
13743;SDS011;6943;52.368;9.966;2023-12-29T09:49:14;4.73;;;2.00;;
13743;SDS011;6943;52.368;9.966;2023-12-29T09:51:41;6.83;;;1.40;;
13743;SDS011;6943;52.368;9.966;2023-12-29T09:54:08;4.20;;;1.73;;
13743;SDS011;6943;52.368;9.966;2023-12-29T09:56:35;4.03;;;1.20;;
13743;SDS011;6943;52.368;9.966;2023-12-29T09:59:00;3.27;;;1.50;;
13743;SDS011;6943;52.368;9.966;2023-12-29T10:01:28;5.70;;;1.40;;
13743;SDS011;6943;52.368;9.966;2023-12-29T10:03:55;5.87;;;1.70;;
13743;SDS011;6943;52.368;9.966;2023-12-29T10:06:23;4.63;;;1.50;;
13743;SDS011;6943;52.368;9.966;2023-12-29T10:08:49;3.03;;;1.07;;
13743;SDS011;6943;52.368;9.966;2023-12-29T10:11:16;5.33;;;0.90;;
13743;SDS011;6943;52.368;9.966;2023-12-29T10:13:46;2.67;;;1.00;;
13743;SDS011;6943;52.368;9.966;2023-12-29T10:16:15;2.77;;;0.80;;
13743;SDS011;6943;52.368;9.966;2023-12-29T10:18:57;3.73;;;1.23;;
13743;SDS011;6943;52.368;9.966;2023-12-29T10:22:26;6.97;;;1.40;;
13743;SDS011;6943;52.368;9.966;2023-12-29T10:24:43;2.87;;;0.97;;
13743;SDS011;6943;52.368;9.966;2023-12-29T10:27:11;4.63;;;1.00;;
13743;SDS011;6943;52.368;9.966;2023-12-29T10:29:36;2.17;;;0.90;;
13743;SDS011;6943;52.368;9.966;2023-12-29T10:32:02;5.50;;;1.00;;
13743;SDS011;6943;52.368;9.966;2023-12-29T10:34:28;4.37;;;1.17;;
13743;SDS011;6943;52.368;9.966;2023-12-29T10:36:57;3.50;;;1.00;;
13743;SDS011;6943;52.368;9.966;2023-12-29T10:39:24;4.37;;;1.43;;
13743;SDS011;6943;52.368;9.966;2023-12-29T10:41:50;2.07;;;1.00;;
13743;SDS011;6943;52.368;9.966;2023-12-29T10:44:28;2.93;;;1.50;;
13743;SDS011;6943;52.368;9.966;2023-12-29T10:46:54;3.43;;;1.00;;
13743;SDS011;6943;52.368;9.966;2023-12-29T10:49:20;4.87;;;1.20;;
13743;SDS011;6943;52.368;9.966;2023-12-29T10:51:45;2.40;;;1.10;;
13743;SDS011;6943;52.368;9.966;2023-12-29T10:54:18;3.77;;;1.17;;
13743;SDS011;6943;52.368;9.966;2023-12-29T10:56:47;3.63;;;0.97;;
13743;SDS011;6943;52.368;9.966;2023-12-29T10:59:26;3.20;;;1.07;;
13743;SDS011;6943;52.368;9.966;2023-12-29T11:01:51;3.83;;;1.37;;
13743;SDS011;6943;52.368;9.966;2023-12-29T11:04:21;1.60;;;0.90;;
13743;SDS011;6943;52.368;9.966;2023-12-29T11:06:47;3.20;;;1.20;;
13743;SDS011;6943;52.368;9.966;2023-12-29T11:09:23;2.23;;;1.30;;
13743;SDS011;6943;52.368;9.966;2023-12-29T11:12:00;2.23;;;1.00;;
13743;SDS011;6943;52.368;9.966;2023-12-29T11:14:27;2.87;;;1.37;;
13743;SDS011;6943;52.368;9.966;2023-12-29T11:16:56;3.57;;;1.17;;
13743;SDS011;6943;52.368;9.966;2023-12-29T11:19:23;3.90;;;1.23;;
13743;SDS011;6943;52.368;9.966;2023-12-29T11:21:51;2.00;;;0.83;;
13743;SDS011;6943;52.368;9.966;2023-12-29T11:24:21;4.77;;;1.10;;
13743;SDS011;6943;52.368;9.966;2023-12-29T11:26:48;4.10;;;1.00;;
13743;SDS011;6943;52.368;9.966;2023-12-29T11:29:15;3.23;;;1.27;;
13743;SDS011;6943;52.368;9.966;2023-12-29T11:31:41;2.60;;;0.90;;
13743;SDS011;6943;52.368;9.966;2023-12-29T11:34:32;1.33;;;0.70;;
13743;SDS011;6943;52.368;9.966;2023-12-29T11:40:00;1.50;;;0.90;;
13743;SDS011;6943;52.368;9.966;2023-12-29T11:42:51;1.60;;;0.70;;
13743;SDS011;6943;52.368;9.966;2023-12-29T11:45:23;1.33;;;0.90;;
13743;SDS011;6943;52.368;9.966;2023-12-29T11:48:00;1.70;;;0.80;;
13743;SDS011;6943;52.368;9.966;2023-12-29T11:50:33;1.07;;;0.70;;
13743;SDS011;6943;52.368;9.966;2023-12-29T11:53:01;1.67;;;0.57;;
13743;SDS011;6943;52.368;9.966;2023-12-29T11:55:31;2.00;;;0.50;;
13743;SDS011;6943;52.368;9.966;2023-12-29T11:58:00;3.60;;;0.80;;
13743;SDS011;6943;52.368;9.966;2023-12-29T12:00:44;1.77;;;0.70;;
13743;SDS011;6943;52.368;9.966;2023-12-29T12:03:18;2.83;;;0.80;;
13743;SDS011;6943;52.368;9.966;2023-12-29T12:05:52;1.23;;;0.70;;
13743;SDS011;6943;52.368;9.966;2023-12-29T12:08:29;1.90;;;1.00;;
13743;SDS011;6943;52.368;9.966;2023-12-29T12:10:56;1.50;;;0.87;;
13743;SDS011;6943;52.368;9.966;2023-12-29T12:16:07;1.80;;;0.70;;
13743;SDS011;6943;52.368;9.966;2023-12-29T12:18:33;0.83;;;0.60;;
13743;SDS011;6943;52.368;9.966;2023-12-29T12:20:59;0.67;;;0.67;;
13743;SDS011;6943;52.368;9.966;2023-12-29T12:23:27;2.90;;;1.00;;
13743;SDS011;6943;52.368;9.966;2023-12-29T12:25:58;1.40;;;1.00;;
13743;SDS011;6943;52.368;9.966;2023-12-29T12:28:26;1.73;;;0.97;;
13743;SDS011;6943;52.368;9.966;2023-12-29T12:30:51;0.90;;;0.80;;
13743;SDS011;6943;52.368;9.966;2023-12-29T12:33:19;0.70;;;0.60;;
13743;SDS011;6943;52.368;9.966;2023-12-29T12:35:44;0.90;;;0.67;;
13743;SDS011;6943;52.368;9.966;2023-12-29T12:38:15;2.03;;;0.83;;
13743;SDS011;6943;52.368;9.966;2023-12-29T12:40:47;1.10;;;0.70;;
13743;SDS011;6943;52.368;9.966;2023-12-29T12:43:15;2.30;;;0.93;;
13743;SDS011;6943;52.368;9.966;2023-12-29T12:45:42;1.40;;;0.97;;
13743;SDS011;6943;52.368;9.966;2023-12-29T12:48:43;1.47;;;0.80;;
13743;SDS011;6943;52.368;9.966;2023-12-29T12:51:10;1.33;;;0.80;;
13743;SDS011;6943;52.368;9.966;2023-12-29T12:53:41;3.73;;;0.90;;
13743;SDS011;6943;52.368;9.966;2023-12-29T12:56:09;2.27;;;1.00;;
13743;SDS011;6943;52.368;9.966;2023-12-29T12:58:35;0.90;;;0.87;;
13743;SDS011;6943;52.368;9.966;2023-12-29T13:01:01;0.80;;;0.67;;
13743;SDS011;6943;52.368;9.966;2023-12-29T13:03:27;3.03;;;1.87;;
13743;SDS011;6943;52.368;9.966;2023-12-29T13:05:53;3.70;;;1.00;;
13743;SDS011;6943;52.368;9.966;2023-12-29T13:08:19;0.80;;;0.70;;
13743;SDS011;6943;52.368;9.966;2023-12-29T13:10:44;1.83;;;0.83;;
13743;SDS011;6943;52.368;9.966;2023-12-29T13:13:10;0.90;;;0.70;;
13743;SDS011;6943;52.368;9.966;2023-12-29T13:15:46;1.23;;;0.67;;
13743;SDS011;6943;52.368;9.966;2023-12-29T13:18:17;1.00;;;0.60;;
13743;SDS011;6943;52.368;9.966;2023-12-29T13:20:43;1.30;;;0.73;;
13743;SDS011;6943;52.368;9.966;2023-12-29T13:23:12;1.57;;;0.90;;
13743;SDS011;6943;52.368;9.966;2023-12-29T13:25:39;1.27;;;0.70;;
13743;SDS011;6943;52.368;9.966;2023-12-29T13:28:07;0.97;;;0.80;;
13743;SDS011;6943;52.368;9.966;2023-12-29T13:30:34;2.30;;;0.80;;
13743;SDS011;6943;52.368;9.966;2023-12-29T13:33:04;0.73;;;0.50;;
13743;SDS011;6943;52.368;9.966;2023-12-29T13:35:37;0.80;;;0.80;;
13743;SDS011;6943;52.368;9.966;2023-12-29T13:38:10;0.70;;;0.50;;
13743;SDS011;6943;52.368;9.966;2023-12-29T13:40:45;1.00;;;0.70;;
13743;SDS011;6943;52.368;9.966;2023-12-29T13:43:19;0.50;;;0.50;;
13743;SDS011;6943;52.368;9.966;2023-12-29T13:45:46;0.70;;;0.50;;
13743;SDS011;6943;52.368;9.966;2023-12-29T13:48:12;0.73;;;0.53;;
13743;SDS011;6943;52.368;9.966;2023-12-29T13:50:42;0.93;;;0.60;;
13743;SDS011;6943;52.368;9.966;2023-12-29T13:53:15;1.73;;;0.60;;
13743;SDS011;6943;52.368;9.966;2023-12-29T13:55:42;1.40;;;0.70;;
13743;SDS011;6943;52.368;9.966;2023-12-29T13:58:11;1.80;;;0.83;;
13743;SDS011;6943;52.368;9.966;2023-12-29T14:00:37;1.07;;;0.70;;
13743;SDS011;6943;52.368;9.966;2023-12-29T14:03:22;0.80;;;0.63;;
13743;SDS011;6943;52.368;9.966;2023-12-29T14:05:52;1.20;;;0.80;;
13743;SDS011;6943;52.368;9.966;2023-12-29T14:10:58;0.80;;;0.80;;
13743;SDS011;6943;52.368;9.966;2023-12-29T14:13:24;0.83;;;0.77;;
13743;SDS011;6943;52.368;9.966;2023-12-29T14:15:50;2.50;;;1.00;;
13743;SDS011;6943;52.368;9.966;2023-12-29T14:21:19;1.27;;;0.80;;
13743;SDS011;6943;52.368;9.966;2023-12-29T14:23:59;2.43;;;0.90;;
13743;SDS011;6943;52.368;9.966;2023-12-29T14:26:28;1.07;;;0.90;;
13743;SDS011;6943;52.368;9.966;2023-12-29T14:31:27;1.10;;;0.90;;
13743;SDS011;6943;52.368;9.966;2023-12-29T14:33:53;2.60;;;1.43;;
13743;SDS011;6943;52.368;9.966;2023-12-29T14:36:18;2.10;;;1.17;;
13743;SDS011;6943;52.368;9.966;2023-12-29T14:38:44;2.33;;;1.03;;
13743;SDS011;6943;52.368;9.966;2023-12-29T14:41:09;2.20;;;1.07;;
13743;SDS011;6943;52.368;9.966;2023-12-29T14:43:35;4.00;;;1.10;;
13743;SDS011;6943;52.368;9.966;2023-12-29T14:46:01;1.00;;;0.80;;
13743;SDS011;6943;52.368;9.966;2023-12-29T14:48:27;1.43;;;1.00;;
13743;SDS011;6943;52.368;9.966;2023-12-29T14:50:52;1.20;;;0.93;;
13743;SDS011;6943;52.368;9.966;2023-12-29T14:53:18;2.93;;;1.07;;
13743;SDS011;6943;52.368;9.966;2023-12-29T14:55:44;2.57;;;1.03;;
13743;SDS011;6943;52.368;9.966;2023-12-29T14:58:10;3.53;;;1.10;;
13743;SDS011;6943;52.368;9.966;2023-12-29T15:00:35;1.97;;;1.20;;
13743;SDS011;6943;52.368;9.966;2023-12-29T15:03:01;3.53;;;1.23;;
13743;SDS011;6943;52.368;9.966;2023-12-29T15:05:26;1.93;;;1.03;;
13743;SDS011;6943;52.368;9.966;2023-12-29T15:07:52;2.10;;;0.97;;
13743;SDS011;6943;52.368;9.966;2023-12-29T15:10:17;2.07;;;1.00;;
13743;SDS011;6943;52.368;9.966;2023-12-29T15:12:43;1.47;;;1.07;;
13743;SDS011;6943;52.368;9.966;2023-12-29T15:15:09;2.73;;;0.90;;
13743;SDS011;6943;52.368;9.966;2023-12-29T15:17:38;1.43;;;0.90;;